createdAt,value
2018-12-24T00:01:59.754Z,100762.00
2018-12-24T00:04:49.638Z,100759.00
2018-12-24T00:07:39.479Z,100759.00
2018-12-24T00:10:29.295Z,100763.00
2018-12-24T00:13:19.178Z,100774.00
2018-12-24T00:15:50.691Z,100773.00
2018-12-24T00:18:40.521Z,100779.00
2018-12-24T00:21:30.416Z,100756.00
2018-12-24T00:24:20.288Z,100785.00
2018-12-24T00:27:10.150Z,100771.00
2018-12-24T00:30:00.304Z,100760.00
2018-12-24T00:32:50.179Z,100811.00
2018-12-24T00:35:40.043Z,100813.00
2018-12-24T00:38:30.247Z,100824.00
2018-12-24T00:41:20.381Z,100832.00
2018-12-24T00:44:10.549Z,100798.00
2018-12-24T00:47:00.502Z,100857.00
2018-12-24T00:49:42.819Z,100857.00
2018-12-24T00:52:33.317Z,100814.00
2018-12-24T00:55:23.177Z,100866.00
2018-12-24T00:58:12.976Z,100827.00
2018-12-24T01:01:02.787Z,100876.00
2018-12-24T01:03:53.608Z,100884.00
2018-12-24T01:06:45.172Z,100856.00
2018-12-24T01:09:35.043Z,100890.00
2018-12-24T01:12:25.035Z,100899.00
2018-12-24T01:15:15.149Z,100902.00
2018-12-24T01:18:05.296Z,100874.00
2018-12-24T01:20:55.140Z,100883.00
2018-12-24T01:23:44.989Z,100922.00
2018-12-24T01:26:34.842Z,100936.00
2018-12-24T01:29:25.334Z,100939.00
2018-12-24T01:32:15.217Z,100905.00
2018-12-24T01:35:05.083Z,100903.00
2018-12-24T01:37:55.552Z,100909.00
2018-12-24T01:40:45.426Z,100960.00
2018-12-24T01:43:35.970Z,100976.00
2018-12-24T01:46:18.322Z,100926.00
2018-12-24T01:49:08.289Z,100973.00
2018-12-24T01:51:58.430Z,100979.00
2018-12-24T01:54:48.352Z,100985.00
2018-12-24T01:57:38.214Z,100961.00
2018-12-24T02:00:28.584Z,100958.00
2018-12-24T02:03:19.077Z,101008.00
2018-12-24T02:06:08.946Z,100978.00
2018-12-24T02:08:59.460Z,100999.00
2018-12-24T02:11:49.334Z,101004.00
2018-12-24T02:14:39.198Z,100990.00
2018-12-24T02:17:28.506Z,101022.00
2018-12-24T02:20:18.396Z,101034.00
2018-12-24T02:23:08.277Z,101040.00
2018-12-24T02:25:58.188Z,101017.00
2018-12-24T02:28:48.628Z,101011.00
2018-12-24T02:31:38.503Z,101045.00
2018-12-24T02:34:09.432Z,101059.00
2018-12-24T02:36:59.682Z,101071.00
2018-12-24T02:39:49.538Z,101078.00
2018-12-24T02:42:39.770Z,101076.00
2018-12-24T02:48:23.494Z,101064.00
2018-12-24T02:51:13.885Z,101067.00
2018-12-24T02:54:03.719Z,101107.00
2018-12-24T02:56:53.869Z,101106.00
2018-12-24T02:59:43.724Z,101111.00
2018-12-24T03:02:33.612Z,101107.00
2018-12-24T03:05:23.475Z,101107.00
2018-12-24T03:08:13.351Z,101066.00
2018-12-24T03:11:03.803Z,101119.00
2018-12-24T03:13:53.934Z,101122.00
2018-12-24T03:16:43.821Z,101088.00
2018-12-24T03:19:33.672Z,101077.00
2018-12-24T03:22:23.839Z,101121.00
2018-12-24T03:25:13.973Z,101087.00
2018-12-24T03:28:04.110Z,101093.00
2018-12-24T03:30:35.337Z,101136.00
2018-12-24T03:33:25.144Z,101142.00
2018-12-24T03:36:15.007Z,101148.00
2018-12-24T03:39:06.581Z,101152.00
2018-12-24T03:41:56.456Z,101133.00
2018-12-24T03:44:27.295Z,101165.00
2018-12-24T03:46:58.194Z,101167.00
2018-12-24T03:49:29.027Z,101161.00
2018-12-24T03:51:59.838Z,101169.00
2018-12-24T03:54:30.718Z,101183.00
2018-12-24T03:57:01.668Z,101191.00
2018-12-24T03:59:51.548Z,101165.00
2018-12-24T04:02:41.959Z,101211.00
2018-12-24T04:05:31.815Z,101212.00
2018-12-24T04:08:22.045Z,101219.00
2018-12-24T04:11:11.881Z,101190.00
2018-12-24T04:14:01.737Z,101202.00
2018-12-24T04:16:51.978Z,101219.00
2018-12-24T04:19:41.839Z,101210.00
2018-12-24T04:22:31.793Z,101236.00
2018-12-24T04:25:21.635Z,101236.00
2018-12-24T04:28:11.510Z,101285.00
2018-12-24T04:30:42.352Z,101282.00
2018-12-24T04:33:32.217Z,101286.00
2018-12-24T04:36:22.039Z,101286.00
2018-12-24T04:39:11.920Z,101263.00
2018-12-24T04:42:02.618Z,101244.00
2018-12-24T04:44:52.748Z,101297.00
2018-12-24T04:47:34.832Z,101303.00
2018-12-24T04:50:24.667Z,101279.00
2018-12-24T04:53:14.756Z,101328.00
2018-12-24T04:56:04.856Z,101337.00
2018-12-24T04:58:55.060Z,101350.00
2018-12-24T05:01:45.221Z,101358.00
2018-12-24T05:04:35.087Z,101370.00
2018-12-24T05:07:24.920Z,101331.00
2018-12-24T05:10:14.794Z,101346.00
2018-12-24T05:13:04.965Z,101363.00
2018-12-24T05:15:54.820Z,101401.00
2018-12-24T05:18:44.243Z,101410.00
2018-12-24T05:21:34.141Z,101414.00
2018-12-24T05:24:24.272Z,101422.00
2018-12-24T05:27:14.122Z,101428.00
2018-12-24T05:30:03.981Z,101432.00
2018-12-24T05:32:54.096Z,101441.00
2018-12-24T05:35:43.995Z,101436.00
2018-12-24T05:38:33.892Z,101408.00
2018-12-24T05:41:04.780Z,101457.00
2018-12-24T05:43:35.874Z,101469.00
2018-12-24T05:46:07.392Z,101483.00
2018-12-24T05:48:50.911Z,101486.00
2018-12-24T05:51:40.818Z,101455.00
2018-12-24T05:54:30.971Z,101480.00
2018-12-24T05:57:01.897Z,101531.00
2018-12-24T05:59:52.034Z,101526.00
2018-12-24T06:02:41.927Z,101495.00
2018-12-24T06:05:31.769Z,101511.00
2018-12-24T06:08:21.649Z,101564.00
2018-12-24T06:11:11.757Z,101566.00
2018-12-24T06:14:01.635Z,101581.00
2018-12-24T06:16:51.506Z,101583.00
2018-12-24T06:19:41.807Z,101546.00
2018-12-24T06:22:31.964Z,101603.00
2018-12-24T06:25:21.845Z,101615.00
2018-12-24T06:28:12.693Z,101624.00
2018-12-24T06:31:02.565Z,101630.00
2018-12-24T06:33:52.451Z,101638.00
2018-12-24T06:36:42.575Z,101658.00
2018-12-24T06:39:32.460Z,101621.00
2018-12-24T06:42:22.340Z,101623.00
2018-12-24T06:45:12.809Z,101645.00
2018-12-24T06:48:02.668Z,101679.00
2018-12-24T06:50:45.496Z,101708.00
2018-12-24T06:53:35.329Z,101709.00
2018-12-24T06:56:25.208Z,101716.00
2018-12-24T06:59:15.694Z,101689.00
2018-12-24T07:02:05.709Z,101732.00
2018-12-24T07:04:37.212Z,101749.00
2018-12-24T07:07:27.366Z,101759.00
2018-12-24T07:10:17.267Z,101765.00
2018-12-24T07:13:07.143Z,101771.00
2018-12-24T07:15:57.053Z,101764.00
2018-12-24T07:18:46.880Z,101765.00
2018-12-24T07:21:36.807Z,101755.00
2018-12-24T07:24:26.679Z,101755.00
2018-12-24T07:27:17.394Z,101762.00
2018-12-24T07:30:07.291Z,101763.00
2018-12-24T07:32:57.717Z,101759.00
2018-12-24T07:35:28.553Z,101767.00
2018-12-24T07:38:00.088Z,101771.00
2018-12-24T07:40:31.291Z,101766.00
2018-12-24T07:43:02.482Z,101771.00
2018-12-24T07:45:52.336Z,101779.00
2018-12-24T07:48:42.217Z,101791.00
2018-12-24T07:51:25.193Z,101785.00
2018-12-24T07:54:15.540Z,101780.00
2018-12-24T07:57:05.406Z,101802.00
2018-12-24T07:59:55.277Z,101814.00
2018-12-24T08:02:45.208Z,101819.00
2018-12-24T08:05:35.291Z,101828.00
2018-12-24T08:08:25.573Z,101829.00
2018-12-24T08:11:15.752Z,101845.00
2018-12-24T08:14:05.685Z,101849.00
2018-12-24T08:16:55.549Z,101865.00
2018-12-24T08:19:45.424Z,101828.00
2018-12-24T08:22:35.621Z,101872.00
2018-12-24T08:25:25.609Z,101871.00
2018-12-24T08:28:15.465Z,101865.00
2018-12-24T08:31:05.371Z,101877.00
2018-12-24T08:33:55.234Z,101873.00
2018-12-24T08:36:45.105Z,101886.00
2018-12-24T08:39:34.967Z,101862.00
2018-12-24T08:42:25.097Z,101900.00
2018-12-24T08:45:14.955Z,101926.00
2018-12-24T08:48:04.830Z,101939.00
2018-12-24T08:50:35.689Z,101939.00
2018-12-24T08:53:25.630Z,101956.00
2018-12-24T08:56:15.504Z,101979.00
2018-12-24T08:58:46.395Z,101984.00
2018-12-24T09:01:36.512Z,101997.00
2018-12-24T09:04:26.670Z,101960.00
2018-12-24T09:06:57.898Z,102007.00
2018-12-24T09:09:48.122Z,101982.00
2018-12-24T09:12:19.546Z,102017.00
2018-12-24T09:15:10.250Z,102027.00
2018-12-24T09:18:00.147Z,102021.00
2018-12-24T09:20:31.087Z,102036.00
2018-12-24T09:23:02.462Z,102053.00
2018-12-24T09:25:33.374Z,102050.00
2018-12-24T09:28:23.252Z,102066.00
2018-12-24T09:31:13.913Z,102071.00
2018-12-24T09:34:04.015Z,102039.00
2018-12-24T09:36:53.909Z,102093.00
2018-12-24T09:39:43.767Z,102093.00
2018-12-24T09:42:33.639Z,102098.00
2018-12-24T09:45:23.559Z,102093.00
2018-12-24T09:48:14.051Z,102052.00
2018-12-24T09:50:44.945Z,102095.00
2018-12-24T09:53:15.791Z,102106.00
2018-12-24T09:55:46.789Z,102112.00
2018-12-24T09:58:36.637Z,102107.00
2018-12-24T10:01:26.508Z,102073.00
2018-12-24T10:04:40.684Z,102118.00
2018-12-24T10:07:40.252Z,102120.00
2018-12-24T10:10:31.121Z,102113.00
2018-12-24T10:13:21.241Z,102080.00
2018-12-24T10:16:11.761Z,102122.00
2018-12-24T10:19:01.616Z,102140.00
2018-12-24T10:21:51.527Z,102130.00
2018-12-24T10:24:41.401Z,102135.00
2018-12-24T10:27:31.557Z,102132.00
2018-12-24T10:30:21.399Z,102097.00
2018-12-24T10:33:11.287Z,102104.00
2018-12-24T10:36:01.171Z,102097.00
2018-12-24T10:38:51.062Z,102133.00
2018-12-24T10:41:40.932Z,102140.00
2018-12-24T10:44:31.391Z,102142.00
2018-12-24T10:47:21.297Z,102142.00
2018-12-24T10:50:03.406Z,102096.00
2018-12-24T10:52:53.575Z,102127.00
2018-12-24T10:55:43.733Z,102119.00
2018-12-24T10:58:33.908Z,102118.00
2018-12-24T11:01:04.855Z,102127.00
2018-12-24T11:03:54.715Z,102078.00
2018-12-24T11:06:44.608Z,102119.00
2018-12-24T11:09:35.199Z,102085.00
2018-12-24T11:12:25.062Z,102086.00
2018-12-24T11:15:15.252Z,102096.00
2018-12-24T11:18:05.149Z,102147.00
2018-12-24T11:20:55.264Z,102140.00
2018-12-24T11:23:45.114Z,102149.00
2018-12-24T11:26:34.991Z,102103.00
2018-12-24T11:29:06.166Z,102169.00
2018-12-24T11:31:56.069Z,102157.00
2018-12-24T11:34:45.938Z,102152.00
2018-12-24T11:37:36.098Z,102184.00
2018-12-24T11:40:07.375Z,102177.00
2018-12-24T11:42:57.367Z,102119.00
2018-12-24T11:45:47.501Z,102172.00
2018-12-24T11:48:37.513Z,102177.00
2018-12-24T11:51:27.693Z,102129.00
2018-12-24T11:54:17.817Z,102177.00
2018-12-24T11:57:07.097Z,102172.00
2018-12-24T11:59:57.328Z,102194.00
2018-12-24T12:02:47.185Z,102159.00
2018-12-24T12:05:37.414Z,102201.00
2018-12-24T12:08:27.288Z,102184.00
2018-12-24T12:11:17.180Z,102191.00
2018-12-24T12:14:07.063Z,102180.00
2018-12-24T12:16:57.369Z,102165.00
2018-12-24T12:19:47.212Z,102196.00
2018-12-24T12:22:18.837Z,102200.00
2018-12-24T12:25:08.681Z,102168.00
2018-12-24T12:27:59.066Z,102168.00
2018-12-24T12:30:49.373Z,102210.00
2018-12-24T12:33:39.264Z,102215.00
2018-12-24T12:36:29.101Z,102226.00
2018-12-24T12:39:19.232Z,102220.00
2018-12-24T12:42:09.116Z,102227.00
2018-12-24T12:44:39.974Z,102230.00
2018-12-24T12:47:22.184Z,102193.00
2018-12-24T12:50:12.080Z,102199.00
2018-12-24T12:53:01.903Z,102195.00
2018-12-24T12:55:51.786Z,102231.00
2018-12-24T12:58:42.000Z,102207.00
2018-12-24T13:01:31.900Z,102216.00
2018-12-24T13:04:21.756Z,102250.00
2018-12-24T13:07:18.779Z,102246.00
2018-12-24T13:10:08.651Z,102236.00
2018-12-24T13:12:58.500Z,102241.00
2018-12-24T13:15:48.372Z,102233.00
2018-12-24T13:18:38.262Z,102218.00
2018-12-24T13:21:28.453Z,102215.00
2018-12-24T13:24:18.335Z,102207.00
2018-12-24T13:27:08.183Z,102232.00
2018-12-24T13:29:58.069Z,102271.00
2018-12-24T13:32:48.001Z,102276.00
2018-12-24T13:35:37.872Z,102286.00
2018-12-24T13:38:20.695Z,102276.00
2018-12-24T13:41:10.524Z,102254.00
2018-12-24T13:43:41.426Z,102289.00
2018-12-24T13:46:14.614Z,102288.00
2018-12-24T13:49:01.843Z,102298.00
2018-12-24T13:51:52.019Z,102288.00
2018-12-24T13:54:41.913Z,102283.00
2018-12-24T13:57:31.756Z,102297.00
2018-12-24T14:00:21.667Z,102289.00
2018-12-24T14:03:11.518Z,102260.00
2018-12-24T14:06:01.727Z,102266.00
2018-12-24T14:08:51.978Z,102269.00
2018-12-24T14:11:41.818Z,102279.00
2018-12-24T14:14:31.658Z,102310.00
2018-12-24T14:17:21.671Z,102310.00
2018-12-24T14:20:12.029Z,102303.00
2018-12-24T14:23:01.892Z,102261.00
2018-12-24T14:25:52.027Z,102291.00
2018-12-24T14:28:41.905Z,102279.00
2018-12-24T14:31:31.776Z,102287.00
2018-12-24T14:34:22.289Z,102271.00
2018-12-24T14:37:12.749Z,102310.00
2018-12-24T14:39:43.649Z,102328.00
2018-12-24T14:42:33.512Z,102327.00
2018-12-24T14:45:23.404Z,102325.00
2018-12-24T14:48:13.512Z,102297.00
2018-12-24T14:50:56.460Z,102289.00
2018-12-24T14:53:47.135Z,102319.00
2018-12-24T14:56:37.021Z,102277.00
2018-12-24T14:59:26.911Z,102315.00
2018-12-24T15:02:17.093Z,102285.00
2018-12-24T15:05:06.985Z,102296.00
2018-12-24T15:07:56.925Z,102302.00
2018-12-24T15:10:46.856Z,102333.00
2018-12-24T15:13:17.738Z,102329.00
2018-12-24T15:16:07.632Z,102329.00
2018-12-24T15:18:57.716Z,102323.00
2018-12-24T15:21:48.147Z,102323.00
2018-12-24T15:24:38.032Z,102292.00
2018-12-24T15:27:09.015Z,102316.00
2018-12-24T15:29:59.408Z,102327.00
2018-12-24T15:32:49.383Z,102306.00
2018-12-24T15:35:39.483Z,102324.00
2018-12-24T15:38:29.368Z,102291.00
2018-12-24T15:41:00.313Z,102326.00
2018-12-24T15:43:50.329Z,102326.00
2018-12-24T15:46:42.767Z,102337.00
2018-12-24T15:49:13.184Z,102338.00
2018-12-24T15:52:03.350Z,102345.00
2018-12-24T15:54:53.228Z,102319.00
2018-12-24T15:57:24.095Z,102366.00
2018-12-24T15:59:55.415Z,102354.00
2018-12-24T16:02:45.349Z,102349.00
2018-12-24T16:05:35.270Z,102319.00
2018-12-24T16:08:06.131Z,102363.00
2018-12-24T16:10:56.021Z,102368.00
2018-12-24T16:13:45.896Z,102370.00
2018-12-24T16:16:36.034Z,102370.00
2018-12-24T16:19:25.886Z,102361.00
2018-12-24T16:22:16.028Z,102360.00
2018-12-24T16:25:05.926Z,102352.00
2018-12-24T16:27:56.108Z,102376.00
2018-12-24T16:30:45.968Z,102373.00
2018-12-24T16:33:16.890Z,102389.00
2018-12-24T16:36:07.582Z,102349.00
2018-12-24T16:38:57.504Z,102397.00
2018-12-24T16:41:47.437Z,102361.00
2018-12-24T16:44:38.162Z,102401.00
2018-12-24T16:47:20.998Z,102372.00
2018-12-24T16:50:10.890Z,102360.00
2018-12-24T16:53:01.156Z,102393.00
2018-12-24T16:55:32.294Z,102397.00
2018-12-24T16:58:03.169Z,102407.00
2018-12-24T17:00:53.217Z,102368.00
2018-12-24T17:03:43.026Z,102389.00
2018-12-24T17:06:33.029Z,102364.00
2018-12-24T17:09:22.893Z,102391.00
2018-12-24T17:12:13.781Z,102404.00
2018-12-24T17:15:03.770Z,102382.00
2018-12-24T17:17:53.708Z,102449.00
2018-12-24T17:20:43.619Z,102458.00
2018-12-24T17:23:33.933Z,102469.00
2018-12-24T17:26:23.808Z,102472.00
2018-12-24T17:29:13.705Z,102463.00
2018-12-24T17:32:03.571Z,102409.00
2018-12-24T17:34:53.788Z,102449.00
2018-12-24T17:37:43.686Z,102442.00
2018-12-24T17:40:33.596Z,102435.00
2018-12-24T17:43:04.777Z,102463.00
2018-12-24T17:45:35.685Z,102474.00
2018-12-24T17:48:17.890Z,102481.00
2018-12-24T17:51:00.896Z,102455.00
2018-12-24T17:53:50.778Z,102470.00
2018-12-24T17:56:41.146Z,102474.00
2018-12-24T17:59:31.279Z,102493.00
2018-12-24T18:02:21.455Z,102488.00
2018-12-24T18:05:10.946Z,102486.00
2018-12-24T18:08:00.856Z,102492.00
2018-12-24T18:10:50.772Z,102503.00
2018-12-24T18:13:40.676Z,102480.00
2018-12-24T18:16:30.561Z,102460.00
2018-12-24T18:19:20.907Z,102473.00
2018-12-24T18:22:10.751Z,102446.00
2018-12-24T18:25:01.002Z,102446.00
2018-12-24T18:27:50.900Z,102467.00
2018-12-24T18:30:40.829Z,102469.00
2018-12-24T18:33:30.827Z,102489.00
2018-12-24T18:36:20.766Z,102482.00
2018-12-24T18:39:11.117Z,102446.00
2018-12-24T18:42:01.314Z,102474.00
2018-12-24T18:44:51.451Z,102464.00
2018-12-24T18:47:41.439Z,102465.00
2018-12-24T18:50:12.313Z,102459.00
2018-12-24T18:52:55.210Z,102435.00
2018-12-24T18:55:45.119Z,102461.00
2018-12-24T18:58:35.024Z,102452.00
2018-12-24T19:01:05.994Z,102460.00
2018-12-24T19:03:56.262Z,102447.00
2018-12-24T19:06:46.169Z,102466.00
2018-12-24T19:09:36.051Z,102480.00
2018-12-24T19:12:06.940Z,102484.00
2018-12-24T19:14:37.943Z,102487.00
2018-12-24T19:17:09.107Z,102490.00
2018-12-24T19:19:59.279Z,102474.00
2018-12-24T19:22:49.145Z,102484.00
2018-12-24T19:25:39.305Z,102448.00
2018-12-24T19:28:29.200Z,102509.00
2018-12-24T19:31:00.133Z,102506.00
2018-12-24T19:33:50.404Z,102504.00
2018-12-24T19:36:40.355Z,102519.00
2018-12-24T19:39:30.363Z,102520.00
2018-12-24T19:42:20.560Z,102531.00
2018-12-24T19:45:10.471Z,102530.00
2018-12-24T19:47:53.101Z,102495.00
2018-12-24T19:50:43.040Z,102532.00
2018-12-24T19:53:33.179Z,102542.00
2018-12-24T19:56:23.075Z,102537.00
2018-12-24T19:59:13.269Z,102543.00
2018-12-24T20:02:03.188Z,102500.00
2018-12-24T20:04:34.084Z,102538.00
2018-12-24T20:07:04.968Z,102531.00
2018-12-24T20:09:36.242Z,102538.00
2018-12-24T20:12:26.115Z,102541.00
2018-12-24T20:15:16.033Z,102544.00
2018-12-24T20:18:05.896Z,102542.00
2018-12-24T20:20:56.397Z,102506.00
2018-12-24T20:23:46.313Z,102539.00
2018-12-24T20:26:35.566Z,102549.00
2018-12-24T20:29:24.751Z,102555.00
2018-12-24T20:32:14.724Z,102499.00
2018-12-24T20:35:04.565Z,102543.00
2018-12-24T20:37:54.440Z,102547.00
2018-12-24T20:40:44.565Z,102512.00
2018-12-24T20:43:34.423Z,102555.00
2018-12-24T20:46:24.312Z,102521.00
2018-12-24T20:49:06.525Z,102553.00
2018-12-24T20:51:56.748Z,102555.00
2018-12-24T20:54:46.618Z,102571.00
2018-12-24T20:57:36.469Z,102529.00
2018-12-24T21:00:08.238Z,102572.00
2018-12-24T21:02:58.373Z,102531.00
2018-12-24T21:05:48.261Z,102515.00
2018-12-24T21:08:38.133Z,102539.00
2018-12-24T21:11:28.364Z,102565.00
2018-12-24T21:14:18.245Z,102538.00
2018-12-24T21:17:08.130Z,102582.00
2018-12-24T21:19:58.970Z,102583.00
2018-12-24T21:22:29.833Z,102571.00
2018-12-24T21:25:19.982Z,102583.00
2018-12-24T21:27:51.092Z,102575.00
2018-12-24T21:30:22.063Z,102578.00
2018-12-24T21:33:11.896Z,102567.00
2018-12-24T21:36:02.221Z,102531.00
2018-12-24T21:38:33.184Z,102576.00
2018-12-24T21:41:23.135Z,102574.00
2018-12-24T21:44:12.988Z,102581.00
2018-12-24T21:47:02.900Z,102553.00
2018-12-24T21:49:45.984Z,102579.00
2018-12-24T21:52:36.364Z,102552.00
2018-12-24T21:55:26.556Z,102575.00
2018-12-24T21:58:16.337Z,102573.00
2018-12-24T22:01:06.218Z,102561.00
2018-12-24T22:03:56.505Z,102535.00
2018-12-24T22:06:46.402Z,102559.00
2018-12-24T22:09:36.359Z,102524.00
2018-12-24T22:12:26.265Z,102518.00
2018-12-24T22:15:16.146Z,102514.00
2018-12-24T22:18:06.019Z,102541.00
2018-12-24T22:20:55.942Z,102544.00
2018-12-24T22:23:26.847Z,102547.00
2018-12-24T22:26:17.074Z,102547.00
2018-12-24T22:29:07.267Z,102551.00
2018-12-24T22:31:57.204Z,102518.00
2018-12-24T22:34:47.175Z,102550.00
2018-12-24T22:37:37.304Z,102513.00
2018-12-24T22:40:27.216Z,102558.00
2018-12-24T22:43:17.088Z,102552.00
2018-12-24T22:46:07.278Z,102518.00
2018-12-24T22:48:51.584Z,102533.00
2018-12-24T22:51:41.500Z,102544.00
2018-12-24T22:54:31.426Z,102541.00
2018-12-24T22:57:21.606Z,102547.00
2018-12-24T23:03:10.104Z,102500.00
2018-12-24T23:06:00.466Z,102521.00
2018-12-24T23:08:50.376Z,102519.00
2018-12-24T23:11:40.266Z,102514.00
2018-12-24T23:14:30.094Z,102512.00
2018-12-24T23:17:19.992Z,102508.00
2018-12-24T23:20:09.866Z,102489.00
2018-12-24T23:23:00.112Z,102490.00
2018-12-24T23:25:49.965Z,102509.00
2018-12-24T23:28:39.547Z,102527.00
2018-12-24T23:31:29.640Z,102531.00
2018-12-24T23:34:00.566Z,102521.00
2018-12-24T23:36:50.442Z,102494.00
2018-12-24T23:39:40.587Z,102484.00
2018-12-24T23:42:30.464Z,102476.00
2018-12-24T23:45:20.630Z,102516.00
2018-12-24T23:47:52.029Z,102511.00
2018-12-24T23:50:41.906Z,102487.00
2018-12-24T23:53:31.787Z,102469.00
2018-12-24T23:56:21.667Z,102497.00
2018-12-24T23:59:11.787Z,102512.00
